sensor_id;sensor_type;location;lat;lon;timestamp;pressure;altitude;pressure_sealevel;temperature;humidity
76866;BME280;66647;52.124;5.416;2023-02-26T00:00:15;102071.81;;;-0.16;83.23
76866;BME280;66647;52.124;5.416;2023-02-26T00:02:43;102074.50;;;-0.16;82.68
76866;BME280;66647;52.124;5.416;2023-02-26T00:05:12;102079.06;;;-0.16;82.42
76866;BME280;66647;52.124;5.416;2023-02-26T00:07:39;102083.47;;;-0.22;82.52
76866;BME280;66647;52.124;5.416;2023-02-26T00:10:08;102084.16;;;-0.26;82.93
76866;BME280;66647;52.124;5.416;2023-02-26T00:12:38;102074.28;;;-0.32;82.34
76866;BME280;66647;52.124;5.416;2023-02-26T00:15:06;102093.59;;;-0.36;82.48
76866;BME280;66647;52.124;5.416;2023-02-26T00:17:43;102092.38;;;-0.40;82.52
76866;BME280;66647;52.124;5.416;2023-02-26T00:20:11;102103.38;;;-0.41;82.59
76866;BME280;66647;52.124;5.416;2023-02-26T00:22:39;102110.84;;;-0.43;82.76
76866;BME280;66647;52.124;5.416;2023-02-26T00:25:07;102114.16;;;-0.41;82.17
76866;BME280;66647;52.124;5.416;2023-02-26T00:27:34;102114.44;;;-0.31;81.05
76866;BME280;66647;52.124;5.416;2023-02-26T00:30:04;102130.28;;;-0.16;80.32
76866;BME280;66647;52.124;5.416;2023-02-26T00:32:32;102129.19;;;-0.09;79.38
76866;BME280;66647;52.124;5.416;2023-02-26T00:35:00;102129.56;;;-0.05;79.09
76866;BME280;66647;52.124;5.416;2023-02-26T00:37:55;102138.03;;;-0.02;78.84
76866;BME280;66647;52.124;5.416;2023-02-26T00:43:04;102152.22;;;0.06;77.40
76866;BME280;66647;52.124;5.416;2023-02-26T00:45:33;102156.50;;;0.13;77.72
76866;BME280;66647;52.124;5.416;2023-02-26T00:51:19;102149.84;;;0.16;76.52
76866;BME280;66647;52.124;5.416;2023-02-26T00:54:03;102156.66;;;0.18;76.10
76866;BME280;66647;52.124;5.416;2023-02-26T00:56:34;102159.00;;;0.15;76.42
76866;BME280;66647;52.124;5.416;2023-02-26T00:59:00;102159.88;;;0.09;76.55
76866;BME280;66647;52.124;5.416;2023-02-26T01:01:27;102161.53;;;0.10;76.44
76866;BME280;66647;52.124;5.416;2023-02-26T01:03:56;102162.56;;;0.09;76.12
76866;BME280;66647;52.124;5.416;2023-02-26T01:06:27;102155.16;;;0.04;76.25
76866;BME280;66647;52.124;5.416;2023-02-26T01:09:08;102160.16;;;0.00;76.55
76866;BME280;66647;52.124;5.416;2023-02-26T01:11:37;102155.84;;;-0.01;76.72
76866;BME280;66647;52.124;5.416;2023-02-26T01:14:18;102159.38;;;0.00;76.65
76866;BME280;66647;52.124;5.416;2023-02-26T01:20:03;102167.81;;;0.04;76.89
76866;BME280;66647;52.124;5.416;2023-02-26T01:25:26;102176.13;;;0.02;76.93
76866;BME280;66647;52.124;5.416;2023-02-26T01:27:54;102180.13;;;-0.01;76.46
76866;BME280;66647;52.124;5.416;2023-02-26T01:30:23;102170.81;;;-0.05;76.54
76866;BME280;66647;52.124;5.416;2023-02-26T01:35:42;102174.84;;;-0.14;76.25
76866;BME280;66647;52.124;5.416;2023-02-26T01:46:30;102191.94;;;-0.26;76.26
76866;BME280;66647;52.124;5.416;2023-02-26T01:49:00;102188.03;;;-0.30;76.93
76866;BME280;66647;52.124;5.416;2023-02-26T01:51:53;102190.38;;;-0.34;76.37
76866;BME280;66647;52.124;5.416;2023-02-26T01:54:24;102195.97;;;-0.36;76.40
76866;BME280;66647;52.124;5.416;2023-02-26T01:57:13;102199.50;;;-0.35;76.25
76866;BME280;66647;52.124;5.416;2023-02-26T01:59:46;102194.13;;;-0.35;76.50
76866;BME280;66647;52.124;5.416;2023-02-26T02:02:17;102207.38;;;-0.33;76.65
76866;BME280;66647;52.124;5.416;2023-02-26T02:04:45;102203.25;;;-0.36;76.57
76866;BME280;66647;52.124;5.416;2023-02-26T02:07:13;102207.19;;;-0.39;76.84
76866;BME280;66647;52.124;5.416;2023-02-26T02:09:41;102208.25;;;-0.40;76.32
76866;BME280;66647;52.124;5.416;2023-02-26T02:12:19;102214.88;;;-0.42;76.34
76866;BME280;66647;52.124;5.416;2023-02-26T02:18:04;102216.41;;;-0.53;76.49
76866;BME280;66647;52.124;5.416;2023-02-26T02:23:36;102226.41;;;-0.60;77.00
76866;BME280;66647;52.124;5.416;2023-02-26T02:26:39;102226.84;;;-0.63;76.94
76866;BME280;66647;52.124;5.416;2023-02-26T02:32:14;102238.06;;;-0.66;76.96
76866;BME280;66647;52.124;5.416;2023-02-26T02:34:51;102248.44;;;-0.70;77.29
76866;BME280;66647;52.124;5.416;2023-02-26T02:37:28;102236.25;;;-0.72;77.24
76866;BME280;66647;52.124;5.416;2023-02-26T02:40:01;102247.22;;;-0.74;77.13
76866;BME280;66647;52.124;5.416;2023-02-26T02:42:33;102247.66;;;-0.77;77.11
76866;BME280;66647;52.124;5.416;2023-02-26T02:45:10;102247.66;;;-0.77;77.26
76866;BME280;66647;52.124;5.416;2023-02-26T02:47:42;102261.53;;;-0.80;77.34
76866;BME280;66647;52.124;5.416;2023-02-26T02:50:23;102261.75;;;-0.81;76.44
76866;BME280;66647;52.124;5.416;2023-02-26T02:53:05;102256.59;;;-0.83;76.22
76866;BME280;66647;52.124;5.416;2023-02-26T02:55:42;102261.16;;;-0.83;76.71
76866;BME280;66647;52.124;5.416;2023-02-26T02:58:15;102259.72;;;-0.86;76.79
76866;BME280;66647;52.124;5.416;2023-02-26T03:00:50;102260.53;;;-0.85;76.47
76866;BME280;66647;52.124;5.416;2023-02-26T03:05:51;102266.97;;;-0.93;76.24
76866;BME280;66647;52.124;5.416;2023-02-26T03:08:21;102270.09;;;-0.96;76.55
76866;BME280;66647;52.124;5.416;2023-02-26T03:10:53;102272.78;;;-0.96;76.38
76866;BME280;66647;52.124;5.416;2023-02-26T03:13:22;102274.91;;;-0.98;76.20
76866;BME280;66647;52.124;5.416;2023-02-26T03:19:20;102282.75;;;-0.96;75.76
76866;BME280;66647;52.124;5.416;2023-02-26T03:21:52;102287.53;;;-0.98;76.37
76866;BME280;66647;52.124;5.416;2023-02-26T03:25:08;102278.03;;;-1.01;75.70
76866;BME280;66647;52.124;5.416;2023-02-26T03:27:48;102284.88;;;-1.05;76.06
76866;BME280;66647;52.124;5.416;2023-02-26T03:31:01;102282.38;;;-1.07;75.55
76866;BME280;66647;52.124;5.416;2023-02-26T03:33:46;102294.81;;;-1.06;75.48
76866;BME280;66647;52.124;5.416;2023-02-26T03:36:26;102288.59;;;-1.06;75.12
76866;BME280;66647;52.124;5.416;2023-02-26T03:39:19;102296.66;;;-1.06;75.16
76866;BME280;66647;52.124;5.416;2023-02-26T03:41:55;102305.16;;;-1.09;74.74
76866;BME280;66647;52.124;5.416;2023-02-26T03:44:54;102311.41;;;-1.15;75.14
76866;BME280;66647;52.124;5.416;2023-02-26T03:47:23;102306.22;;;-1.17;75.01
76866;BME280;66647;52.124;5.416;2023-02-26T03:49:58;102309.94;;;-1.18;74.84
76866;BME280;66647;52.124;5.416;2023-02-26T03:52:32;102315.97;;;-1.22;74.79
76866;BME280;66647;52.124;5.416;2023-02-26T03:58:13;102315.56;;;-1.26;75.20
76866;BME280;66647;52.124;5.416;2023-02-26T04:01:21;102319.50;;;-1.28;75.02
76866;BME280;66647;52.124;5.416;2023-02-26T04:03:59;102329.66;;;-1.30;74.13
76866;BME280;66647;52.124;5.416;2023-02-26T04:06:32;102333.97;;;-1.29;74.70
76866;BME280;66647;52.124;5.416;2023-02-26T04:09:01;102335.25;;;-1.32;74.20
76866;BME280;66647;52.124;5.416;2023-02-26T04:11:30;102326.34;;;-1.32;75.07
76866;BME280;66647;52.124;5.416;2023-02-26T04:13:58;102324.50;;;-1.39;74.80
76866;BME280;66647;52.124;5.416;2023-02-26T04:16:26;102330.50;;;-1.43;75.37
76866;BME280;66647;52.124;5.416;2023-02-26T04:18:53;102341.28;;;-1.50;75.85
76866;BME280;66647;52.124;5.416;2023-02-26T04:21:23;102352.03;;;-1.56;75.65
76866;BME280;66647;52.124;5.416;2023-02-26T04:23:52;102344.59;;;-1.54;75.64
76866;BME280;66647;52.124;5.416;2023-02-26T04:26:26;102354.50;;;-1.55;76.28
76866;BME280;66647;52.124;5.416;2023-02-26T04:28:52;102357.00;;;-1.60;76.09
76866;BME280;66647;52.124;5.416;2023-02-26T04:31:19;102361.75;;;-1.62;75.97
76866;BME280;66647;52.124;5.416;2023-02-26T04:33:46;102361.16;;;-1.64;77.14
76866;BME280;66647;52.124;5.416;2023-02-26T04:36:13;102363.22;;;-1.66;76.76
76866;BME280;66647;52.124;5.416;2023-02-26T04:38:39;102370.25;;;-1.65;76.25
76866;BME280;66647;52.124;5.416;2023-02-26T04:41:07;102375.44;;;-1.70;77.01
76866;BME280;66647;52.124;5.416;2023-02-26T04:43:34;102379.97;;;-1.71;76.87
76866;BME280;66647;52.124;5.416;2023-02-26T04:46:16;102380.81;;;-1.70;77.25
76866;BME280;66647;52.124;5.416;2023-02-26T04:48:42;102375.63;;;-1.72;77.46
76866;BME280;66647;52.124;5.416;2023-02-26T04:51:13;102384.09;;;-1.75;77.15
76866;BME280;66647;52.124;5.416;2023-02-26T04:53:40;102382.88;;;-1.79;77.39
76866;BME280;66647;52.124;5.416;2023-02-26T04:56:10;102390.50;;;-1.82;77.30
76866;BME280;66647;52.124;5.416;2023-02-26T04:58:37;102385.53;;;-1.85;77.77
76866;BME280;66647;52.124;5.416;2023-02-26T05:01:08;102392.34;;;-1.89;78.18
76866;BME280;66647;52.124;5.416;2023-02-26T05:03:35;102394.41;;;-1.91;77.69
76866;BME280;66647;52.124;5.416;2023-02-26T05:06:18;102394.03;;;-1.95;78.14
76866;BME280;66647;52.124;5.416;2023-02-26T05:08:51;102401.25;;;-1.95;78.12
76866;BME280;66647;52.124;5.416;2023-02-26T05:11:54;102408.50;;;-1.96;78.37
76866;BME280;66647;52.124;5.416;2023-02-26T05:14:21;102418.41;;;-1.96;78.00
76866;BME280;66647;52.124;5.416;2023-02-26T05:17:27;102418.63;;;-1.98;78.23
76866;BME280;66647;52.124;5.416;2023-02-26T05:20:12;102422.34;;;-1.99;77.82
76866;BME280;66647;52.124;5.416;2023-02-26T05:23:03;102425.44;;;-2.02;77.91
76866;BME280;66647;52.124;5.416;2023-02-26T05:25:30;102430.38;;;-2.06;77.90
76866;BME280;66647;52.124;5.416;2023-02-26T05:27:58;102423.75;;;-2.10;78.03
76866;BME280;66647;52.124;5.416;2023-02-26T05:30:56;102428.72;;;-2.07;78.45
76866;BME280;66647;52.124;5.416;2023-02-26T05:33:26;102440.06;;;-2.11;78.51
76866;BME280;66647;52.124;5.416;2023-02-26T05:35:53;102440.47;;;-2.14;78.63
76866;BME280;66647;52.124;5.416;2023-02-26T05:38:45;102445.81;;;-2.21;78.70
76866;BME280;66647;52.124;5.416;2023-02-26T05:41:12;102439.00;;;-2.23;79.13
76866;BME280;66647;52.124;5.416;2023-02-26T05:43:38;102459.03;;;-2.26;79.65
76866;BME280;66647;52.124;5.416;2023-02-26T05:46:05;102456.56;;;-2.27;78.98
76866;BME280;66647;52.124;5.416;2023-02-26T05:48:32;102464.19;;;-2.24;79.02
76866;BME280;66647;52.124;5.416;2023-02-26T05:50:59;102470.19;;;-2.22;78.49
76866;BME280;66647;52.124;5.416;2023-02-26T05:53:26;102465.88;;;-2.23;78.27
76866;BME280;66647;52.124;5.416;2023-02-26T05:55:52;102472.69;;;-2.21;78.51
76866;BME280;66647;52.124;5.416;2023-02-26T05:58:19;102474.94;;;-2.24;78.61
76866;BME280;66647;52.124;5.416;2023-02-26T06:00:48;102480.75;;;-2.27;78.82
76866;BME280;66647;52.124;5.416;2023-02-26T06:03:14;102486.72;;;-2.32;78.83
76866;BME280;66647;52.124;5.416;2023-02-26T06:05:43;102484.44;;;-2.35;79.00
76866;BME280;66647;52.124;5.416;2023-02-26T06:08:10;102485.66;;;-2.38;79.50
76866;BME280;66647;52.124;5.416;2023-02-26T06:10:40;102490.19;;;-2.38;78.99
76866;BME280;66647;52.124;5.416;2023-02-26T06:13:07;102501.53;;;-2.43;79.66
76866;BME280;66647;52.124;5.416;2023-02-26T06:15:33;102498.22;;;-2.45;79.30
76866;BME280;66647;52.124;5.416;2023-02-26T06:18:00;102498.41;;;-2.46;79.88
76866;BME280;66647;52.124;5.416;2023-02-26T06:20:27;102508.53;;;-2.48;80.05
76866;BME280;66647;52.124;5.416;2023-02-26T06:22:53;102511.84;;;-2.46;80.07
76866;BME280;66647;52.124;5.416;2023-02-26T06:25:20;102505.84;;;-2.48;80.02
76866;BME280;66647;52.124;5.416;2023-02-26T06:27:46;102506.66;;;-2.48;80.39
76866;BME280;66647;52.124;5.416;2023-02-26T06:30:13;102509.16;;;-2.46;79.56
76866;BME280;66647;52.124;5.416;2023-02-26T06:32:41;102517.84;;;-2.44;79.68
76866;BME280;66647;52.124;5.416;2023-02-26T06:35:08;102520.34;;;-2.43;79.75
76866;BME280;66647;52.124;5.416;2023-02-26T06:37:40;102519.75;;;-2.38;79.45
76866;BME280;66647;52.124;5.416;2023-02-26T06:40:24;102534.84;;;-2.37;78.47
76866;BME280;66647;52.124;5.416;2023-02-26T06:42:50;102528.44;;;-2.36;78.91
76866;BME280;66647;52.124;5.416;2023-02-26T06:45:17;102537.13;;;-2.34;78.41
76866;BME280;66647;52.124;5.416;2023-02-26T06:47:43;102543.31;;;-2.33;78.81
76866;BME280;66647;52.124;5.416;2023-02-26T06:50:13;102542.09;;;-2.31;79.05
76866;BME280;66647;52.124;5.416;2023-02-26T06:52:41;102537.56;;;-2.30;78.87
76866;BME280;66647;52.124;5.416;2023-02-26T06:55:08;102542.31;;;-2.26;78.17
76866;BME280;66647;52.124;5.416;2023-02-26T06:57:35;102558.22;;;-2.24;78.52
76866;BME280;66647;52.124;5.416;2023-02-26T07:00:04;102561.34;;;-2.21;78.16
76866;BME280;66647;52.124;5.416;2023-02-26T07:02:41;102561.78;;;-2.17;78.05
76866;BME280;66647;52.124;5.416;2023-02-26T07:05:11;102564.50;;;-2.11;77.30
76866;BME280;66647;52.124;5.416;2023-02-26T07:07:40;102566.59;;;-2.06;77.89
76866;BME280;66647;52.124;5.416;2023-02-26T07:10:09;102575.31;;;-2.04;77.55
76866;BME280;66647;52.124;5.416;2023-02-26T07:12:51;102582.78;;;-1.99;77.84
76866;BME280;66647;52.124;5.416;2023-02-26T07:15:17;102585.66;;;-1.94;77.19
76866;BME280;66647;52.124;5.416;2023-02-26T07:18:07;102579.09;;;-1.85;77.13
76866;BME280;66647;52.124;5.416;2023-02-26T07:20:34;102597.75;;;-1.77;76.85
76866;BME280;66647;52.124;5.416;2023-02-26T07:23:00;102595.72;;;-1.68;76.83
76866;BME280;66647;52.124;5.416;2023-02-26T07:25:28;102595.53;;;-1.60;76.63
76866;BME280;66647;52.124;5.416;2023-02-26T07:27:57;102600.72;;;-1.52;76.31
76866;BME280;66647;52.124;5.416;2023-02-26T07:30:25;102602.00;;;-1.42;75.68
76866;BME280;66647;52.124;5.416;2023-02-26T07:32:52;102603.28;;;-1.31;75.82
76866;BME280;66647;52.124;5.416;2023-02-26T07:35:18;102601.66;;;-1.12;75.32
76866;BME280;66647;52.124;5.416;2023-02-26T07:37:45;102603.31;;;-1.05;75.37
76866;BME280;66647;52.124;5.416;2023-02-26T07:40:12;102615.97;;;-0.98;75.67
76866;BME280;66647;52.124;5.416;2023-02-26T07:42:48;102620.53;;;-0.46;74.50
76866;BME280;66647;52.124;5.416;2023-02-26T07:45:15;102621.50;;;-0.14;73.20
76866;BME280;66647;52.124;5.416;2023-02-26T07:47:51;102619.44;;;-0.19;72.15
76866;BME280;66647;52.124;5.416;2023-02-26T07:50:32;102619.38;;;0.01;72.85
76866;BME280;66647;52.124;5.416;2023-02-26T07:52:59;102621.03;;;0.60;70.50
76866;BME280;66647;52.124;5.416;2023-02-26T07:55:32;102620.94;;;0.73;70.57
76866;BME280;66647;52.124;5.416;2023-02-26T08:01:36;102619.66;;;2.96;67.66
76866;BME280;66647;52.124;5.416;2023-02-26T08:04:19;102617.03;;;4.01;62.18
76866;BME280;66647;52.124;5.416;2023-02-26T08:07:10;102620.59;;;5.66;56.67
76866;BME280;66647;52.124;5.416;2023-02-26T08:10:02;102625.63;;;6.56;53.95
76866;BME280;66647;52.124;5.416;2023-02-26T08:12:30;102625.69;;;7.15;51.22
76866;BME280;66647;52.124;5.416;2023-02-26T08:15:21;102631.81;;;8.01;48.12
76866;BME280;66647;52.124;5.416;2023-02-26T08:17:56;102638.69;;;8.14;46.04
76866;BME280;66647;52.124;5.416;2023-02-26T08:20:26;102646.88;;;8.66;45.44
76866;BME280;66647;52.124;5.416;2023-02-26T08:22:55;102649.94;;;8.75;45.30
76866;BME280;66647;52.124;5.416;2023-02-26T08:25:22;102650.81;;;9.16;45.70
76866;BME280;66647;52.124;5.416;2023-02-26T08:27:48;102664.81;;;9.35;43.61
76866;BME280;66647;52.124;5.416;2023-02-26T08:30:41;102657.41;;;9.46;44.96
76866;BME280;66647;52.124;5.416;2023-02-26T08:33:10;102663.69;;;9.82;43.36
76866;BME280;66647;52.124;5.416;2023-02-26T08:36:02;102672.38;;;10.29;41.84
76866;BME280;66647;52.124;5.416;2023-02-26T08:38:35;102678.97;;;10.28;42.07
76866;BME280;66647;52.124;5.416;2023-02-26T08:41:01;102678.50;;;10.75;38.30
76866;BME280;66647;52.124;5.416;2023-02-26T08:43:28;102677.78;;;10.55;40.57
76866;BME280;66647;52.124;5.416;2023-02-26T08:45:56;102683.91;;;10.31;39.58
76866;BME280;66647;52.124;5.416;2023-02-26T08:48:23;102677.50;;;10.56;38.08
76866;BME280;66647;52.124;5.416;2023-02-26T08:50:50;102684.06;;;10.55;37.69
76866;BME280;66647;52.124;5.416;2023-02-26T08:53:41;102686.75;;;11.20;37.17
76866;BME280;66647;52.124;5.416;2023-02-26T08:56:51;102689.03;;;10.53;39.21
76866;BME280;66647;52.124;5.416;2023-02-26T08:59:59;102700.34;;;10.96;35.33
76866;BME280;66647;52.124;5.416;2023-02-26T09:02:39;102699.94;;;10.68;34.95
76866;BME280;66647;52.124;5.416;2023-02-26T09:05:07;102707.34;;;11.17;36.20
76866;BME280;66647;52.124;5.416;2023-02-26T09:07:37;102701.09;;;11.06;36.52
76866;BME280;66647;52.124;5.416;2023-02-26T09:10:09;102712.50;;;11.68;35.79
76866;BME280;66647;52.124;5.416;2023-02-26T09:12:35;102709.09;;;11.81;35.44
76866;BME280;66647;52.124;5.416;2023-02-26T09:15:03;102704.06;;;11.93;32.79
76866;BME280;66647;52.124;5.416;2023-02-26T09:17:31;102709.97;;;12.05;33.62
76866;BME280;66647;52.124;5.416;2023-02-26T09:20:02;102717.22;;;11.62;32.54
76866;BME280;66647;52.124;5.416;2023-02-26T09:22:32;102719.72;;;11.59;34.17
76866;BME280;66647;52.124;5.416;2023-02-26T09:25:00;102710.13;;;11.12;33.24
76866;BME280;66647;52.124;5.416;2023-02-26T09:27:27;102716.78;;;11.45;33.99
76866;BME280;66647;52.124;5.416;2023-02-26T09:30:36;102709.69;;;11.73;33.73
76866;BME280;66647;52.124;5.416;2023-02-26T09:33:03;102719.13;;;12.01;31.23
76866;BME280;66647;52.124;5.416;2023-02-26T09:35:29;102728.41;;;12.34;32.49
76866;BME280;66647;52.124;5.416;2023-02-26T09:37:56;102714.06;;;12.08;31.89
76866;BME280;66647;52.124;5.416;2023-02-26T09:40:32;102721.94;;;11.91;34.34
76866;BME280;66647;52.124;5.416;2023-02-26T09:43:12;102732.97;;;11.47;32.50
76866;BME280;66647;52.124;5.416;2023-02-26T09:45:42;102718.34;;;11.95;33.13
76866;BME280;66647;52.124;5.416;2023-02-26T09:48:13;102726.91;;;12.18;32.93
76866;BME280;66647;52.124;5.416;2023-02-26T09:50:43;102728.75;;;12.27;31.72
76866;BME280;66647;52.124;5.416;2023-02-26T09:53:37;102729.50;;;12.81;33.43
76866;BME280;66647;52.124;5.416;2023-02-26T09:56:24;102733.66;;;12.54;31.23
76866;BME280;66647;52.124;5.416;2023-02-26T09:58:58;102740.69;;;12.13;31.61
76866;BME280;66647;52.124;5.416;2023-02-26T10:01:56;102736.09;;;12.79;32.64
76866;BME280;66647;52.124;5.416;2023-02-26T10:12:59;102763.78;;;11.83;31.62
76866;BME280;66647;52.124;5.416;2023-02-26T10:15:45;102746.78;;;12.09;31.42
76866;BME280;66647;52.124;5.416;2023-02-26T10:18:18;102753.50;;;11.98;30.45
76866;BME280;66647;52.124;5.416;2023-02-26T10:21:01;102758.50;;;11.91;31.33
76866;BME280;66647;52.124;5.416;2023-02-26T10:23:38;102754.75;;;12.11;31.23
76866;BME280;66647;52.124;5.416;2023-02-26T10:26:35;102755.84;;;12.39;31.95
76866;BME280;66647;52.124;5.416;2023-02-26T10:32:01;102752.66;;;13.60;30.28
76866;BME280;66647;52.124;5.416;2023-02-26T10:34:39;102754.84;;;14.09;28.64
76866;BME280;66647;52.124;5.416;2023-02-26T10:39:43;102758.81;;;13.70;28.54
76866;BME280;66647;52.124;5.416;2023-02-26T10:42:22;102765.97;;;13.34;30.06
76866;BME280;66647;52.124;5.416;2023-02-26T10:45:08;102770.47;;;13.06;29.62
76866;BME280;66647;52.124;5.416;2023-02-26T10:48:00;102768.38;;;12.98;30.28
76866;BME280;66647;52.124;5.416;2023-02-26T10:50:31;102768.28;;;13.45;29.07
76866;BME280;66647;52.124;5.416;2023-02-26T10:52:59;102767.84;;;13.38;28.96
76866;BME280;66647;52.124;5.416;2023-02-26T10:55:42;102773.06;;;12.97;30.83
76866;BME280;66647;52.124;5.416;2023-02-26T10:58:23;102779.56;;;12.83;28.81
76866;BME280;66647;52.124;5.416;2023-02-26T11:00:53;102771.44;;;12.72;29.28
76866;BME280;66647;52.124;5.416;2023-02-26T11:03:35;102786.16;;;12.63;29.22
76866;BME280;66647;52.124;5.416;2023-02-26T11:06:05;102780.44;;;12.54;29.50
76866;BME280;66647;52.124;5.416;2023-02-26T11:08:46;102778.88;;;12.72;29.22
76866;BME280;66647;52.124;5.416;2023-02-26T11:12:05;102782.00;;;13.08;29.76
76866;BME280;66647;52.124;5.416;2023-02-26T11:14:46;102787.22;;;13.09;27.77
76866;BME280;66647;52.124;5.416;2023-02-26T11:17:28;102786.53;;;12.99;29.41
76866;BME280;66647;52.124;5.416;2023-02-26T11:20:04;102792.19;;;13.07;28.61
76866;BME280;66647;52.124;5.416;2023-02-26T11:22:51;102801.88;;;13.05;28.76
76866;BME280;66647;52.124;5.416;2023-02-26T11:25:29;102789.31;;;12.99;28.82
76866;BME280;66647;52.124;5.416;2023-02-26T11:28:01;102792.13;;;12.94;28.56
76866;BME280;66647;52.124;5.416;2023-02-26T11:30:34;102793.25;;;13.11;28.09
76866;BME280;66647;52.124;5.416;2023-02-26T11:33:27;102792.78;;;13.47;29.20
76866;BME280;66647;52.124;5.416;2023-02-26T11:35:59;102803.41;;;13.16;27.97
76866;BME280;66647;52.124;5.416;2023-02-26T11:38:27;102790.97;;;12.71;28.56
76866;BME280;66647;52.124;5.416;2023-02-26T11:40:56;102786.97;;;13.06;30.25
76866;BME280;66647;52.124;5.416;2023-02-26T11:43:26;102794.28;;;13.39;27.35
76866;BME280;66647;52.124;5.416;2023-02-26T11:46:00;102806.34;;;11.90;29.35
76866;BME280;66647;52.124;5.416;2023-02-26T11:48:48;102803.53;;;11.02;31.91
76866;BME280;66647;52.124;5.416;2023-02-26T11:51:21;102812.72;;;10.72;31.54
76866;BME280;66647;52.124;5.416;2023-02-26T11:54:00;102800.09;;;10.66;32.35
76866;BME280;66647;52.124;5.416;2023-02-26T11:56:30;102810.94;;;11.56;32.26
76866;BME280;66647;52.124;5.416;2023-02-26T11:59:15;102794.81;;;11.88;30.88
76866;BME280;66647;52.124;5.416;2023-02-26T12:01:50;102793.47;;;11.86;30.97
76866;BME280;66647;52.124;5.416;2023-02-26T12:04:20;102789.78;;;11.56;31.29
76866;BME280;66647;52.124;5.416;2023-02-26T12:06:49;102796.66;;;11.98;31.55
76866;BME280;66647;52.124;5.416;2023-02-26T12:09:25;102797.06;;;11.76;30.39
76866;BME280;66647;52.124;5.416;2023-02-26T12:12:36;102790.63;;;12.30;31.19
76866;BME280;66647;52.124;5.416;2023-02-26T12:20:20;102782.78;;;12.42;30.84
76866;BME280;66647;52.124;5.416;2023-02-26T12:23:11;102775.97;;;13.06;31.81
76866;BME280;66647;52.124;5.416;2023-02-26T12:45:19;102781.78;;;10.31;34.58
76866;BME280;66647;52.124;5.416;2023-02-26T13:08:20;102780.66;;;9.81;36.21
76866;BME280;66647;52.124;5.416;2023-02-26T13:10:26;102785.88;;;9.88;35.29
76866;BME280;66647;52.124;5.416;2023-02-26T13:15:55;102785.03;;;9.62;36.10
76866;BME280;66647;52.124;5.416;2023-02-26T13:21:22;102784.72;;;9.38;35.67
76866;BME280;66647;52.124;5.416;2023-02-26T13:24:11;102776.22;;;9.29;36.25
76866;BME280;66647;52.124;5.416;2023-02-26T13:26:42;102780.25;;;9.12;36.80
76866;BME280;66647;52.124;5.416;2023-02-26T13:29:40;102776.13;;;9.04;38.05
76866;BME280;66647;52.124;5.416;2023-02-26T13:32:15;102778.59;;;9.05;37.46
76866;BME280;66647;52.124;5.416;2023-02-26T13:34:52;102776.16;;;9.09;37.06
76866;BME280;66647;52.124;5.416;2023-02-26T13:43:18;102770.03;;;8.87;36.38
76866;BME280;66647;52.124;5.416;2023-02-26T13:51:39;102777.53;;;9.06;36.10
76866;BME280;66647;52.124;5.416;2023-02-26T13:59:51;102776.13;;;8.99;37.30
76866;BME280;66647;52.124;5.416;2023-02-26T14:04:57;102768.88;;;8.72;36.04
76866;BME280;66647;52.124;5.416;2023-02-26T14:07:47;102774.66;;;8.76;38.03
76866;BME280;66647;52.124;5.416;2023-02-26T14:10:41;102761.22;;;8.69;38.78
76866;BME280;66647;52.124;5.416;2023-02-26T14:13:15;102757.94;;;8.77;37.90
76866;BME280;66647;52.124;5.416;2023-02-26T14:15:59;102768.69;;;8.89;38.98
76866;BME280;66647;52.124;5.416;2023-02-26T14:23:59;102781.38;;;8.58;40.54
76866;BME280;66647;52.124;5.416;2023-02-26T14:26:31;102780.84;;;8.61;39.78
76866;BME280;66647;52.124;5.416;2023-02-26T14:29:15;102776.94;;;8.47;40.34
76866;BME280;66647;52.124;5.416;2023-02-26T14:34:54;102781.13;;;8.23;39.78
76866;BME280;66647;52.124;5.416;2023-02-26T14:37:26;102776.50;;;8.28;39.20
76866;BME280;66647;52.124;5.416;2023-02-26T14:40:03;102780.00;;;8.19;38.76
76866;BME280;66647;52.124;5.416;2023-02-26T14:42:42;102780.81;;;8.19;39.47
76866;BME280;66647;52.124;5.416;2023-02-26T14:47:46;102778.09;;;8.19;38.62
76866;BME280;66647;52.124;5.416;2023-02-26T14:50:17;102775.78;;;8.01;38.09
76866;BME280;66647;52.124;5.416;2023-02-26T14:53:05;102783.31;;;7.89;38.59
76866;BME280;66647;52.124;5.416;2023-02-26T14:55:44;102779.13;;;7.81;38.27
76866;BME280;66647;52.124;5.416;2023-02-26T14:58:25;102790.59;;;7.78;39.38
76866;BME280;66647;52.124;5.416;2023-02-26T15:01:06;102782.09;;;7.74;39.44
76866;BME280;66647;52.124;5.416;2023-02-26T15:07:14;102792.91;;;7.64;40.24
76866;BME280;66647;52.124;5.416;2023-02-26T15:10:32;102789.50;;;7.52;41.36
76866;BME280;66647;52.124;5.416;2023-02-26T15:13:29;102798.19;;;7.44;40.90
76866;BME280;66647;52.124;5.416;2023-02-26T15:16:34;102790.44;;;7.36;41.24
76866;BME280;66647;52.124;5.416;2023-02-26T15:21:52;102794.38;;;7.23;42.30
76866;BME280;66647;52.124;5.416;2023-02-26T15:24:23;102790.13;;;7.32;43.00
76866;BME280;66647;52.124;5.416;2023-02-26T15:26:57;102787.47;;;7.37;42.01
76866;BME280;66647;52.124;5.416;2023-02-26T15:29:31;102793.88;;;7.26;41.54
76866;BME280;66647;52.124;5.416;2023-02-26T15:32:28;102799.44;;;7.10;42.48
76866;BME280;66647;52.124;5.416;2023-02-26T15:37:47;102796.38;;;7.06;43.38
76866;BME280;66647;52.124;5.416;2023-02-26T15:40:19;102799.69;;;7.08;43.56
76866;BME280;66647;52.124;5.416;2023-02-26T15:42:50;102794.22;;;7.08;42.97
76866;BME280;66647;52.124;5.416;2023-02-26T15:45:40;102795.59;;;6.89;43.84
76866;BME280;66647;52.124;5.416;2023-02-26T15:48:19;102805.56;;;6.78;44.03
76866;BME280;66647;52.124;5.416;2023-02-26T15:50:52;102803.09;;;6.77;44.24
76866;BME280;66647;52.124;5.416;2023-02-26T15:53:28;102807.25;;;6.62;43.43
76866;BME280;66647;52.124;5.416;2023-02-26T15:56:00;102802.88;;;6.61;43.58
76866;BME280;66647;52.124;5.416;2023-02-26T15:58:39;102802.88;;;6.61;44.07
76866;BME280;66647;52.124;5.416;2023-02-26T16:01:21;102798.00;;;6.63;44.14
76866;BME280;66647;52.124;5.416;2023-02-26T16:03:51;102806.09;;;6.58;44.22